createdAt,value
2018-08-19T00:01:10.308Z,24.00
2018-08-19T00:03:38.760Z,25.17
2018-08-19T00:06:07.341Z,43.53
2018-08-19T00:08:35.772Z,29.60
2018-08-19T00:11:05.999Z,24.23
2018-08-19T00:13:35.364Z,34.73
2018-08-19T00:16:04.084Z,26.00
2018-08-19T00:18:33.218Z,27.47
2018-08-19T00:21:01.770Z,23.90
2018-08-19T00:23:34.898Z,19.87
2018-08-19T00:26:03.855Z,22.60
2018-08-19T00:28:32.217Z,30.53
2018-08-19T00:31:00.689Z,26.63
2018-08-19T00:33:29.084Z,33.50
2018-08-19T00:35:57.498Z,19.13
2018-08-19T00:38:25.810Z,25.10
2018-08-19T00:40:54.171Z,26.00
2018-08-19T00:43:23.341Z,21.13
2018-08-19T00:45:51.762Z,25.70
2018-08-19T00:48:20.074Z,21.73
2018-08-19T00:50:48.535Z,25.87
2018-08-19T00:53:16.895Z,19.87
2018-08-19T00:55:49.385Z,25.80
2018-08-19T00:58:19.501Z,28.10
2018-08-19T01:00:47.953Z,28.83
2018-08-19T01:03:16.279Z,26.07
2018-08-19T01:05:44.582Z,23.03
2018-08-19T01:08:14.050Z,28.43
2018-08-19T01:10:42.695Z,23.20
2018-08-19T01:13:12.170Z,21.73
2018-08-19T01:15:40.527Z,19.67
2018-08-19T01:18:09.015Z,25.60
2018-08-19T01:20:37.453Z,21.00
2018-08-19T01:23:05.850Z,23.77
2018-08-19T01:25:34.196Z,38.83
2018-08-19T01:28:02.620Z,27.90
2018-08-19T01:30:31.065Z,29.60
2018-08-19T01:32:59.528Z,25.80
2018-08-19T01:35:32.010Z,28.50
2018-08-19T01:38:00.567Z,25.67
2018-08-19T01:40:28.898Z,30.17
2018-08-19T01:42:57.322Z,27.87
2018-08-19T01:45:26.035Z,29.83
2018-08-19T01:47:54.341Z,23.87
2018-08-19T01:50:22.673Z,33.10
2018-08-19T01:52:51.147Z,21.33
2018-08-19T01:55:19.905Z,22.87
2018-08-19T01:57:49.441Z,27.37
2018-08-19T02:00:18.386Z,21.47
2018-08-19T02:02:56.799Z,26.27
2018-08-19T02:05:25.400Z,23.70
2018-08-19T02:07:56.674Z,22.93
2018-08-19T02:10:25.428Z,26.20
2018-08-19T02:12:55.117Z,24.43
2018-08-19T02:15:24.739Z,20.30
2018-08-19T02:17:57.452Z,21.80
2018-08-19T02:20:28.161Z,25.30
2018-08-19T02:22:58.434Z,28.00
2018-08-19T02:25:29.239Z,24.20
2018-08-19T02:27:57.643Z,25.83
2018-08-19T02:30:26.359Z,29.70
2018-08-19T02:32:55.701Z,30.23
2018-08-19T02:35:24.115Z,21.93
2018-08-19T02:37:52.449Z,30.57
2018-08-19T02:40:24.907Z,27.93
2018-08-19T02:42:53.302Z,22.60
2018-08-19T02:45:21.817Z,26.93
2018-08-19T02:47:50.116Z,27.63
2018-08-19T02:50:18.448Z,24.37
2018-08-19T02:52:46.750Z,24.97
2018-08-19T02:55:15.454Z,19.20
2018-08-19T02:57:43.795Z,22.93
2018-08-19T03:00:12.780Z,22.60
2018-08-19T03:02:42.272Z,32.20
2018-08-19T03:05:12.335Z,22.43
2018-08-19T03:07:40.993Z,30.30
2018-08-19T03:10:11.493Z,27.00
2018-08-19T03:12:40.479Z,24.43
2018-08-19T03:15:10.399Z,31.10
2018-08-19T03:17:39.211Z,33.23
2018-08-19T03:20:10.580Z,25.57
2018-08-19T03:22:39.043Z,40.90
2018-08-19T03:25:08.477Z,27.30
2018-08-19T03:27:36.821Z,33.67
2018-08-19T03:30:09.809Z,25.80
2018-08-19T03:32:46.174Z,33.13
2018-08-19T03:35:18.696Z,30.57
2018-08-19T03:37:47.376Z,28.17
2018-08-19T03:40:15.773Z,26.17
2018-08-19T03:42:44.157Z,25.87
2018-08-19T03:45:16.666Z,26.20
2018-08-19T03:47:45.558Z,27.17
2018-08-19T03:50:18.381Z,28.23
2018-08-19T03:52:46.678Z,29.37
2018-08-19T03:55:19.164Z,26.83
2018-08-19T03:57:48.397Z,22.77
2018-08-19T04:00:18.274Z,27.97
2018-08-19T04:02:46.658Z,26.20
2018-08-19T04:05:15.037Z,27.73
2018-08-19T04:07:44.128Z,34.97
2018-08-19T04:10:12.912Z,27.70
2018-08-19T04:12:41.306Z,31.70
2018-08-19T04:15:10.421Z,23.30
2018-08-19T04:17:39.089Z,23.13
2018-08-19T04:20:07.592Z,24.80
2018-08-19T04:22:36.017Z,24.73
2018-08-19T04:25:04.721Z,30.83
2018-08-19T04:27:33.087Z,24.27
2018-08-19T04:30:01.571Z,30.23
2018-08-19T04:32:31.962Z,24.03
2018-08-19T04:35:01.596Z,33.47
2018-08-19T04:37:30.268Z,37.37
2018-08-19T04:39:59.691Z,26.67
2018-08-19T04:42:28.033Z,25.30
2018-08-19T04:44:56.849Z,25.83
2018-08-19T04:47:28.370Z,23.83
2018-08-19T04:49:56.773Z,23.00
2018-08-19T04:52:25.481Z,19.87
2018-08-19T04:54:55.416Z,20.07
2018-08-19T04:57:23.861Z,22.30
2018-08-19T04:59:52.340Z,20.33
2018-08-19T05:02:21.176Z,19.13
2018-08-19T05:04:49.472Z,21.30
2018-08-19T05:07:17.824Z,21.20
2018-08-19T05:09:46.480Z,30.03
2018-08-19T05:12:15.352Z,24.57
2018-08-19T05:14:43.729Z,21.67
2018-08-19T05:17:12.587Z,20.40
2018-08-19T05:19:40.969Z,20.13
2018-08-19T05:22:13.218Z,19.70
2018-08-19T05:24:42.245Z,15.20
2018-08-19T05:27:10.777Z,15.57
2018-08-19T05:29:39.232Z,13.87
2018-08-19T05:32:12.841Z,17.23
2018-08-19T05:34:42.107Z,17.77
2018-08-19T05:37:10.602Z,14.57
2018-08-19T05:39:45.039Z,17.03
2018-08-19T05:42:14.029Z,27.80
2018-08-19T05:44:42.877Z,15.70
2018-08-19T05:47:12.695Z,18.83
2018-08-19T05:49:43.267Z,14.83
2018-08-19T05:52:15.909Z,17.23
2018-08-19T05:54:48.576Z,15.30
2018-08-19T05:57:17.615Z,15.87
2018-08-19T05:59:47.208Z,14.87
2018-08-19T06:02:16.259Z,17.63
2018-08-19T06:04:45.200Z,17.10
2018-08-19T06:07:16.717Z,18.13
2018-08-19T06:09:45.044Z,13.40
2018-08-19T06:12:13.429Z,17.13
2018-08-19T06:14:41.805Z,13.00
2018-08-19T06:17:10.164Z,10.90
2018-08-19T06:19:38.628Z,13.20
2018-08-19T06:22:07.330Z,11.60
2018-08-19T06:24:35.770Z,19.40
2018-08-19T06:27:04.028Z,16.80
2018-08-19T06:29:45.478Z,19.03
2018-08-19T06:32:20.695Z,19.13
2018-08-19T06:34:49.855Z,28.70
2018-08-19T06:37:18.917Z,48.87
2018-08-19T06:39:47.677Z,39.60
2018-08-19T06:42:16.092Z,11.93
2018-08-19T06:44:44.668Z,17.93
2018-08-19T06:47:13.164Z,30.10
2018-08-19T06:49:45.684Z,10.70
2018-08-19T06:52:14.393Z,9.93
2018-08-19T06:54:42.730Z,10.63
2018-08-19T06:57:11.419Z,16.10
2018-08-19T06:59:39.863Z,11.47
2018-08-19T07:02:08.678Z,12.13
2018-08-19T07:04:40.682Z,15.83
2018-08-19T07:07:11.020Z,12.60
2018-08-19T07:09:39.744Z,9.30
2018-08-19T07:12:16.334Z,14.43
2018-08-19T07:14:45.173Z,7.27
2018-08-19T07:17:13.701Z,16.33
2018-08-19T07:19:42.119Z,8.43
2018-08-19T07:22:14.004Z,7.60
2018-08-19T07:24:42.413Z,9.53
2018-08-19T07:27:11.094Z,9.43
2018-08-19T07:29:39.538Z,7.40
2018-08-19T07:32:08.855Z,17.30
2018-08-19T07:34:37.242Z,7.23
2018-08-19T07:37:05.715Z,16.27
2018-08-19T07:39:39.421Z,11.53
2018-08-19T07:42:08.181Z,6.40
2018-08-19T07:44:36.855Z,6.53
2018-08-19T07:47:05.330Z,5.43
2018-08-19T07:49:33.738Z,9.20
2018-08-19T07:52:02.243Z,4.90
2018-08-19T07:54:30.523Z,4.73
2018-08-19T07:57:03.289Z,5.67
2018-08-19T07:59:31.645Z,5.70
2018-08-19T08:02:00.045Z,5.87
2018-08-19T08:04:32.634Z,6.40
2018-08-19T08:07:01.013Z,4.90
2018-08-19T08:09:29.306Z,4.93
2018-08-19T08:11:57.665Z,5.57
2018-08-19T08:14:26.176Z,5.20
2018-08-19T08:16:55.043Z,7.33
2018-08-19T08:19:23.989Z,6.93
2018-08-19T08:21:54.337Z,6.73
2018-08-19T08:24:22.718Z,4.73
2018-08-19T08:26:55.224Z,11.50
2018-08-19T08:29:23.766Z,4.70
2018-08-19T08:31:56.546Z,7.33
2018-08-19T08:34:26.518Z,6.43
2018-08-19T08:36:58.885Z,4.30
2018-08-19T08:39:27.278Z,9.03
2018-08-19T08:41:56.807Z,4.30
2018-08-19T08:44:25.294Z,5.63
2018-08-19T08:46:54.243Z,4.93
2018-08-19T08:49:22.724Z,5.10
2018-08-19T08:51:51.148Z,5.70
2018-08-19T08:54:19.689Z,4.43
2018-08-19T08:56:48.072Z,6.90
2018-08-19T08:59:16.433Z,7.13
2018-08-19T09:01:44.835Z,5.00
2018-08-19T09:04:13.203Z,4.07
2018-08-19T09:06:41.613Z,4.40
2018-08-19T09:09:10.035Z,4.83
2018-08-19T09:11:38.443Z,4.57
2018-08-19T09:14:06.845Z,4.37
2018-08-19T09:16:35.319Z,5.13
2018-08-19T09:19:03.709Z,4.47
2018-08-19T09:21:32.183Z,6.20
2018-08-19T09:24:00.542Z,5.90
2018-08-19T09:26:28.874Z,6.97
2018-08-19T09:28:57.257Z,5.60
2018-08-19T09:31:26.184Z,9.70
2018-08-19T09:33:54.667Z,4.47
2018-08-19T09:36:23.136Z,4.53
2018-08-19T09:38:51.939Z,5.70
2018-08-19T09:41:20.233Z,7.10
2018-08-19T09:43:48.540Z,5.70
2018-08-19T09:46:16.859Z,4.90
2018-08-19T09:48:45.349Z,5.70
2018-08-19T09:51:15.918Z,4.97
2018-08-19T09:53:44.369Z,4.53
2018-08-19T09:56:12.787Z,10.67
2018-08-19T09:58:43.151Z,5.40
2018-08-19T10:01:15.767Z,4.40
2018-08-19T10:03:44.090Z,7.23
2018-08-19T10:06:12.457Z,4.70
2018-08-19T10:08:41.686Z,5.07
2018-08-19T10:11:09.990Z,9.23
2018-08-19T10:13:38.398Z,6.30
2018-08-19T10:16:06.734Z,4.80
2018-08-19T10:18:35.102Z,5.13
2018-08-19T10:21:07.644Z,4.33
2018-08-19T10:23:35.986Z,5.30
2018-08-19T10:26:04.381Z,9.53
2018-08-19T10:28:33.423Z,4.53
2018-08-19T10:31:02.153Z,4.60
2018-08-19T10:33:32.269Z,4.83
2018-08-19T10:36:00.742Z,4.80
2018-08-19T10:38:29.071Z,4.27
2018-08-19T10:41:01.705Z,5.77
2018-08-19T10:43:30.179Z,5.57
2018-08-19T10:45:58.509Z,5.60
2018-08-19T10:48:26.936Z,5.43
2018-08-19T10:50:55.373Z,5.33
2018-08-19T10:53:27.355Z,5.80
2018-08-19T10:56:01.457Z,5.20
2018-08-19T10:58:29.951Z,5.87
2018-08-19T11:00:58.298Z,6.43
2018-08-19T11:03:26.719Z,8.90
2018-08-19T11:05:56.296Z,6.07
2018-08-19T11:08:24.716Z,6.07
2018-08-19T11:10:53.093Z,6.43
2018-08-19T11:13:23.144Z,10.57
2018-08-19T11:15:53.402Z,5.67
2018-08-19T11:18:28.095Z,6.60
2018-08-19T11:21:01.742Z,7.57
2018-08-19T11:23:30.077Z,5.97
2018-08-19T11:25:58.985Z,5.97
2018-08-19T11:28:37.330Z,6.60
2018-08-19T11:31:06.684Z,6.83
2018-08-19T11:33:37.872Z,7.30
2018-08-19T11:36:06.411Z,7.40
2018-08-19T11:38:34.847Z,9.43
2018-08-19T11:41:05.064Z,6.43
2018-08-19T11:43:36.259Z,6.70
2018-08-19T11:46:05.616Z,6.03
2018-08-19T11:48:33.982Z,6.30
2018-08-19T11:51:05.960Z,5.60
2018-08-19T11:53:34.632Z,6.10
2018-08-19T11:56:03.068Z,7.73
2018-08-19T11:58:37.780Z,5.53
2018-08-19T12:01:08.534Z,5.83
2018-08-19T12:03:49.690Z,6.00
2018-08-19T12:06:19.016Z,6.20
2018-08-19T12:08:48.158Z,5.50
2018-08-19T12:11:18.786Z,6.67
2018-08-19T12:13:51.181Z,5.30
2018-08-19T12:16:21.308Z,5.70
2018-08-19T12:18:50.085Z,4.53
2018-08-19T12:21:18.598Z,5.80
2018-08-19T12:23:48.569Z,6.20
2018-08-19T12:26:16.956Z,5.73
2018-08-19T12:28:45.805Z,5.33
2018-08-19T12:31:15.987Z,6.20
2018-08-19T12:33:44.385Z,6.07
2018-08-19T12:36:12.742Z,6.13
2018-08-19T12:38:41.153Z,6.20
2018-08-19T12:41:09.603Z,6.17
2018-08-19T12:43:41.093Z,7.33
2018-08-19T12:46:09.484Z,5.97
2018-08-19T12:48:37.960Z,6.17
2018-08-19T12:51:06.360Z,6.47
2018-08-19T12:53:35.191Z,7.43
2018-08-19T12:56:03.575Z,6.97
2018-08-19T12:58:31.996Z,6.67
2018-08-19T13:01:00.405Z,5.63
2018-08-19T13:03:29.060Z,6.73
2018-08-19T13:06:02.825Z,8.37
2018-08-19T13:08:31.362Z,7.53
2018-08-19T13:11:05.543Z,6.00
2018-08-19T13:13:34.495Z,9.00
2018-08-19T13:16:02.941Z,5.90
2018-08-19T13:18:35.705Z,7.83
2018-08-19T13:21:08.174Z,6.40
2018-08-19T13:23:36.823Z,6.60
2018-08-19T13:26:05.429Z,6.13
2018-08-19T13:28:37.053Z,7.00
2018-08-19T13:31:05.912Z,7.33
2018-08-19T13:33:35.351Z,7.30
2018-08-19T13:36:04.221Z,6.40
2018-08-19T13:38:35.149Z,6.70
2018-08-19T13:41:05.734Z,6.90
2018-08-19T13:43:35.170Z,7.53
2018-08-19T13:46:04.142Z,6.03
2018-08-19T13:48:33.024Z,6.70
2018-08-19T13:51:01.907Z,6.20
2018-08-19T13:53:30.953Z,6.93
2018-08-19T13:55:59.370Z,6.80
2018-08-19T13:58:28.151Z,5.67
2018-08-19T14:00:56.595Z,5.80
2018-08-19T14:03:25.731Z,6.90
2018-08-19T14:05:54.155Z,5.37
2018-08-19T14:08:22.646Z,7.17
2018-08-19T14:10:51.059Z,5.53
2018-08-19T14:13:19.707Z,8.20
2018-08-19T14:15:48.161Z,6.43
2018-08-19T14:18:17.182Z,5.70
2018-08-19T14:20:45.648Z,6.13
2018-08-19T14:23:14.268Z,5.83
2018-08-19T14:25:42.995Z,8.87
2018-08-19T14:28:11.551Z,6.40
2018-08-19T14:30:40.152Z,6.13
2018-08-19T14:33:09.435Z,6.20
2018-08-19T14:35:38.039Z,7.73
2018-08-19T14:38:06.929Z,5.50
2018-08-19T14:40:35.489Z,6.73
2018-08-19T14:43:04.160Z,6.27
2018-08-19T14:45:33.286Z,7.70
2018-08-19T14:48:01.857Z,9.03
2018-08-19T14:50:30.430Z,6.33
2018-08-19T14:52:59.175Z,6.40
2018-08-19T14:55:27.764Z,6.67
2018-08-19T14:57:56.326Z,5.37
2018-08-19T15:00:25.148Z,5.30
2018-08-19T15:02:53.601Z,7.20
2018-08-19T15:05:22.025Z,11.03
2018-08-19T15:07:51.054Z,6.40
2018-08-19T15:10:23.227Z,7.10
2018-08-19T15:12:52.460Z,6.50
2018-08-19T15:15:21.022Z,15.07
2018-08-19T15:17:53.647Z,7.07
2018-08-19T15:20:26.837Z,5.80
2018-08-19T15:23:04.741Z,6.63
2018-08-19T15:25:33.567Z,5.97
2018-08-19T15:28:02.168Z,7.40
2018-08-19T15:30:30.782Z,6.97
2018-08-19T15:33:00.131Z,7.10
2018-08-19T15:35:28.694Z,7.93
2018-08-19T15:37:57.224Z,7.10
2018-08-19T15:40:34.902Z,6.53
2018-08-19T15:43:03.612Z,6.50
2018-08-19T15:45:32.607Z,8.27
2018-08-19T15:48:01.448Z,6.53
2018-08-19T15:50:30.356Z,6.57
2018-08-19T15:52:59.650Z,7.50
2018-08-19T15:55:28.186Z,7.53
2018-08-19T15:57:59.376Z,9.50
2018-08-19T16:00:28.294Z,12.57
2018-08-19T16:02:58.079Z,7.77
2018-08-19T16:05:26.579Z,7.90
2018-08-19T16:07:55.076Z,7.10
2018-08-19T16:10:25.759Z,7.53
2018-08-19T16:12:56.935Z,7.40
2018-08-19T16:15:27.125Z,7.10
2018-08-19T16:17:56.655Z,7.17
2018-08-19T16:20:25.852Z,7.30
2018-08-19T16:22:54.240Z,7.33
2018-08-19T16:25:22.679Z,7.57
2018-08-19T16:27:51.919Z,6.90
2018-08-19T16:30:20.933Z,7.90
2018-08-19T16:32:49.541Z,10.80
2018-08-19T16:35:21.116Z,7.60
2018-08-19T16:37:50.009Z,7.80
2018-08-19T16:40:18.710Z,8.30
2018-08-19T16:42:47.145Z,7.33
2018-08-19T16:45:16.813Z,7.77
2018-08-19T16:47:45.780Z,8.53
2018-08-19T16:50:14.535Z,8.03
2018-08-19T16:52:43.677Z,10.23
2018-08-19T16:55:12.096Z,6.90
2018-08-19T16:57:42.153Z,9.20
2018-08-19T17:00:10.803Z,9.23
2018-08-19T17:02:39.587Z,13.53
2018-08-19T17:05:17.063Z,7.77
2018-08-19T17:07:45.475Z,12.13
2018-08-19T17:10:14.012Z,7.83
2018-08-19T17:12:42.313Z,7.87
2018-08-19T17:15:10.781Z,13.90
2018-08-19T17:17:39.184Z,9.10
2018-08-19T17:20:08.471Z,8.37
2018-08-19T17:22:37.245Z,21.83
2018-08-19T17:25:06.262Z,12.80
2018-08-19T17:27:34.618Z,8.90
2018-08-19T17:30:05.473Z,10.40
2018-08-19T17:32:33.948Z,10.47
2018-08-19T17:35:02.289Z,10.23
2018-08-19T17:37:30.823Z,11.73
2018-08-19T17:39:59.864Z,14.93
2018-08-19T17:42:28.330Z,13.80
2018-08-19T17:44:56.831Z,9.97
2018-08-19T17:47:25.242Z,12.60
2018-08-19T17:49:53.953Z,10.53
2018-08-19T17:52:22.671Z,10.67
2018-08-19T17:54:51.125Z,8.90
2018-08-19T17:57:19.468Z,19.43
2018-08-19T17:59:48.159Z,13.20
2018-08-19T18:02:16.709Z,11.30
2018-08-19T18:04:46.241Z,12.60
2018-08-19T18:07:20.382Z,11.60
2018-08-19T18:09:52.921Z,13.53
2018-08-19T18:12:21.843Z,10.20
2018-08-19T18:14:50.431Z,14.17
2018-08-19T18:17:19.201Z,11.33
2018-08-19T18:19:47.739Z,13.03
2018-08-19T18:22:18.593Z,15.33
2018-08-19T18:24:52.186Z,11.80
2018-08-19T18:27:20.933Z,11.43
2018-08-19T18:29:49.340Z,11.33
2018-08-19T18:32:18.158Z,12.27
2018-08-19T18:34:47.790Z,15.83
2018-08-19T18:37:16.379Z,13.90
2018-08-19T18:39:44.769Z,11.43
2018-08-19T18:42:19.423Z,10.93
2018-08-19T18:44:48.572Z,10.97
2018-08-19T18:47:17.349Z,13.67
2018-08-19T18:49:45.780Z,18.20
2018-08-19T18:52:18.452Z,12.30
2018-08-19T18:54:48.123Z,11.63
2018-08-19T18:57:17.052Z,18.03
2018-08-19T18:59:45.352Z,15.37
2018-08-19T19:02:13.823Z,14.47
2018-08-19T19:04:42.309Z,15.07
2018-08-19T19:07:10.760Z,18.70
2018-08-19T19:09:43.427Z,19.87
2018-08-19T19:12:12.046Z,12.67
2018-08-19T19:14:40.897Z,15.40
2018-08-19T19:17:09.385Z,16.40
2018-08-19T19:19:41.907Z,15.83
2018-08-19T19:22:11.913Z,12.80
2018-08-19T19:24:41.196Z,11.43
2018-08-19T19:27:10.375Z,14.00
2018-08-19T19:29:39.038Z,15.00
2018-08-19T19:32:15.052Z,26.50
2018-08-19T19:34:43.482Z,14.53
2018-08-19T19:37:12.778Z,13.57
2018-08-19T19:39:41.401Z,16.07
2018-08-19T19:42:10.848Z,19.43
2018-08-19T19:44:39.359Z,19.93
2018-08-19T19:47:08.952Z,19.70
2018-08-19T19:49:45.366Z,19.07
2018-08-19T19:52:13.719Z,15.20
2018-08-19T19:54:42.125Z,17.60
2018-08-19T19:57:10.473Z,20.07
2018-08-19T19:59:38.880Z,18.73
2018-08-19T20:02:11.328Z,16.93
2018-08-19T20:04:39.848Z,20.83
2018-08-19T20:07:09.044Z,17.40
2018-08-19T20:09:37.466Z,14.53
2018-08-19T20:12:09.086Z,13.37
2018-08-19T20:14:41.632Z,22.67
2018-08-19T20:17:10.149Z,19.87
2018-08-19T20:19:38.562Z,13.93
2018-08-19T20:22:11.516Z,19.53
2018-08-19T20:24:39.896Z,13.87
2018-08-19T20:27:08.685Z,24.50
2018-08-19T20:29:37.331Z,18.20
2018-08-19T20:32:05.902Z,17.30
2018-08-19T20:34:34.481Z,22.20
2018-08-19T20:37:02.841Z,17.97
2018-08-19T20:39:31.485Z,18.53
2018-08-19T20:42:02.994Z,34.90
2018-08-19T20:44:31.371Z,14.60
2018-08-19T20:46:59.972Z,17.53
2018-08-19T20:49:28.465Z,14.73
2018-08-19T20:51:57.520Z,20.80
2018-08-19T20:54:25.853Z,21.70
2018-08-19T20:56:54.382Z,14.93
2018-08-19T20:59:27.058Z,22.80
2018-08-19T21:01:55.790Z,13.70
2018-08-19T21:04:24.299Z,17.47
2018-08-19T21:06:52.916Z,13.73
2018-08-19T21:09:21.630Z,22.50
2018-08-19T21:11:50.261Z,29.07
2018-08-19T21:14:19.945Z,15.70
2018-08-19T21:16:48.290Z,23.30
2018-08-19T21:19:16.860Z,21.50
2018-08-19T21:21:45.464Z,30.07
2018-08-19T21:24:13.672Z,25.83
2018-08-19T21:26:49.319Z,16.23
2018-08-19T21:29:18.060Z,25.23
2018-08-19T21:31:46.609Z,17.03
2018-08-19T21:34:15.333Z,15.97
2018-08-19T21:36:44.036Z,21.43
2018-08-19T21:39:12.641Z,19.90
2018-08-19T21:41:47.319Z,21.27
2018-08-19T21:44:16.440Z,18.43
2018-08-19T21:46:45.536Z,21.80
2018-08-19T21:49:14.927Z,19.83
2018-08-19T21:51:43.308Z,18.33
2018-08-19T21:54:13.129Z,23.07
2018-08-19T21:56:41.936Z,16.87
2018-08-19T21:59:14.802Z,22.53
2018-08-19T22:01:49.393Z,16.80
2018-08-19T22:04:18.398Z,20.63
2018-08-19T22:06:47.354Z,18.10
2018-08-19T22:09:24.964Z,14.30
2018-08-19T22:11:55.218Z,18.30
2018-08-19T22:14:24.136Z,19.83
2018-08-19T22:16:56.791Z,24.50
2018-08-19T22:19:25.572Z,17.47
2018-08-19T22:21:54.005Z,21.63
2018-08-19T22:24:22.429Z,18.33
2018-08-19T22:26:50.855Z,18.73
2018-08-19T22:29:23.311Z,18.73
2018-08-19T22:31:53.039Z,22.40
2018-08-19T22:34:21.581Z,18.83
2018-08-19T22:36:50.135Z,20.37
2018-08-19T22:39:20.084Z,14.97
2018-08-19T22:41:49.189Z,22.17
2018-08-19T22:44:17.934Z,21.23
2018-08-19T22:46:46.611Z,17.53
2018-08-19T22:49:15.003Z,17.53
2018-08-19T22:51:43.507Z,21.27
2018-08-19T22:54:11.993Z,25.47
2018-08-19T22:56:40.580Z,20.27
2018-08-19T22:59:09.815Z,15.83
2018-08-19T23:01:42.362Z,16.97
2018-08-19T23:04:10.831Z,20.93
2018-08-19T23:06:39.404Z,20.90
2018-08-19T23:09:10.815Z,20.07
2018-08-19T23:11:43.670Z,18.53
2018-08-19T23:14:20.833Z,20.67
2018-08-19T23:16:49.225Z,19.53
2018-08-19T23:19:19.394Z,17.00
2018-08-19T23:21:47.955Z,15.07
2018-08-19T23:24:16.499Z,19.53
2018-08-19T23:26:44.956Z,14.57
2018-08-19T23:29:13.363Z,22.20
2018-08-19T23:31:43.962Z,15.77
2018-08-19T23:34:12.467Z,19.37
2018-08-19T23:36:40.855Z,18.13
2018-08-19T23:39:10.176Z,17.27
2018-08-19T23:41:38.601Z,25.10
2018-08-19T23:44:07.187Z,20.30
2018-08-19T23:46:35.547Z,17.87
2018-08-19T23:49:03.943Z,21.10
2018-08-19T23:51:32.622Z,18.87
2018-08-19T23:54:02.304Z,16.90
2018-08-19T23:56:31.433Z,17.20
2018-08-19T23:59:00.664Z,24.47
